Time;durP1;ratioP1;P1;durP2;ratioP2;P2;SDS_P1;SDS_P2;PMS_P1;PMS_P2;Temp;Humidity;BMP_temperature;BMP_pressure;BME280_temperature;BME280_humidity;BME280_pressure;Samples;Min_cycle;Max_cycle;Signal;HPM_P1;HPM_P2
2024/04/25 00:00:27;;;;;;;11.52;5.75;;;5.90;99.90;;;;;;5355105;26;19997;-60
2024/04/25 00:02:53;;;;;;;8.75;5.22;;;5.90;99.90;;;;;;5329521;26;20013;-60
2024/04/25 00:05:20;;;;;;;9.25;5.97;;;5.90;99.90;;;;;;5328779;26;19997;-60
2024/04/25 00:07:47;;;;;;;8.52;5.65;;;5.90;99.90;;;;;;5327744;26;20088;-60
2024/04/25 00:10:13;;;;;;;7.85;5.72;;;5.90;99.90;;;;;;5330622;26;20001;-60
2024/04/25 00:12:39;;;;;;;11.15;5.97;;;5.90;99.90;;;;;;5353415;26;20081;-61
2024/04/25 00:15:05;;;;;;;7.38;5.53;;;6.00;99.90;;;;;;5331346;26;20478;-60
2024/04/25 00:17:31;;;;;;;10.00;6.15;;;6.00;99.90;;;;;;5353068;26;20030;-60
2024/04/25 00:19:57;;;;;;;11.30;6.10;;;6.00;99.90;;;;;;5352861;26;20743;-60
2024/04/25 00:22:23;;;;;;;14.00;6.30;;;6.10;99.90;;;;;;5329694;26;20049;-60
2024/04/25 00:24:49;;;;;;;8.18;5.22;;;6.10;99.90;;;;;;5327714;26;20040;-60
2024/04/25 00:27:15;;;;;;;7.60;5.18;;;6.10;99.90;;;;;;5325961;26;21175;-60
2024/04/25 00:29:41;;;;;;;8.43;5.10;;;6.00;99.90;;;;;;5333077;26;20000;-60
2024/04/25 00:32:07;;;;;;;9.32;5.60;;;6.00;99.90;;;;;;5333043;26;20348;-60
2024/04/25 00:34:32;;;;;;;9.35;6.10;;;6.00;99.90;;;;;;5324000;26;20483;-60
2024/04/25 00:36:58;;;;;;;7.80;5.68;;;6.00;99.90;;;;;;5331838;26;20012;-60
2024/04/25 00:39:24;;;;;;;6.55;4.78;;;6.00;99.90;;;;;;5359133;26;20000;-60
2024/04/25 00:41:50;;;;;;;8.48;5.60;;;6.00;99.90;;;;;;5331583;26;20009;-60
2024/04/25 00:44:18;;;;;;;7.22;5.35;;;6.00;99.90;;;;;;5326566;26;20012;-60
2024/04/25 00:46:48;;;;;;;10.85;5.47;;;5.90;99.90;;;;;;5325813;26;20339;-60
2024/04/25 00:49:15;;;;;;;8.23;5.55;;;5.90;99.90;;;;;;5330947;26;19997;-59
2024/04/25 00:51:42;;;;;;;8.32;5.63;;;5.90;99.90;;;;;;5328207;26;20004;-59
2024/04/25 00:54:08;;;;;;;9.00;5.50;;;6.00;99.90;;;;;;5327956;26;19997;-60
2024/04/25 00:56:38;;;;;;;8.65;5.40;;;5.90;99.90;;;;;;5351470;26;20013;-59
2024/04/25 00:59:07;;;;;;;9.70;5.85;;;5.90;99.90;;;;;;5331711;26;20452;-59
2024/04/25 01:01:35;;;;;;;8.63;5.95;;;5.90;99.90;;;;;;5329947;26;19997;-60
2024/04/25 01:04:03;;;;;;;8.75;5.15;;;5.90;99.90;;;;;;5326371;26;20003;-60
2024/04/25 01:06:32;;;;;;;7.72;5.65;;;5.80;99.90;;;;;;5358310;26;20048;-59
2024/04/25 01:08:59;;;;;;;7.22;5.10;;;5.80;99.90;;;;;;5331426;26;19998;-59
2024/04/25 01:11:27;;;;;;;6.05;4.68;;;5.70;99.90;;;;;;5358546;26;20011;-60
2024/04/25 01:13:54;;;;;;;9.65;5.00;;;5.70;99.90;;;;;;5325345;26;19998;-59
2024/04/25 01:16:20;;;;;;;7.53;5.47;;;5.60;99.90;;;;;;5323890;26;20455;-60
2024/04/25 01:18:46;;;;;;;8.27;5.15;;;5.60;99.90;;;;;;5333588;26;20012;-60
2024/04/25 01:21:12;;;;;;;8.70;5.28;;;5.70;99.90;;;;;;5325160;26;20364;-59
2024/04/25 01:23:40;;;;;;;7.35;4.78;;;5.60;99.90;;;;;;5328552;26;20074;-59
2024/04/25 01:26:07;;;;;;;6.13;4.47;;;5.60;99.90;;;;;;5354762;26;20578;-59
2024/04/25 01:28:34;;;;;;;9.20;5.63;;;5.60;99.90;;;;;;5325216;26;20008;-60
2024/04/25 01:31:01;;;;;;;7.10;4.47;;;5.50;99.90;;;;;;5326483;26;20001;-60
2024/04/25 01:33:28;;;;;;;6.55;4.50;;;5.50;99.90;;;;;;5328248;26;20012;-60
2024/04/25 01:35:54;;;;;;;9.45;4.68;;;5.40;99.90;;;;;;5324567;26;20002;-60
2024/04/25 01:38:20;;;;;;;5.60;3.72;;;5.40;99.90;;;;;;5330594;26;20467;-59
2024/04/25 01:40:46;;;;;;;6.05;4.18;;;5.40;99.90;;;;;;5323955;26;20007;-60
2024/04/25 01:43:12;;;;;;;7.53;3.85;;;5.40;99.90;;;;;;5325497;26;20355;-59
2024/04/25 01:45:38;;;;;;;5.05;3.45;;;5.30;99.90;;;;;;5328918;26;20057;-60
2024/04/25 01:48:05;;;;;;;5.18;3.55;;;5.30;99.90;;;;;;5353956;26;20025;-59
2024/04/25 01:50:31;;;;;;;5.47;3.95;;;5.30;99.90;;;;;;5327330;26;20012;-59
2024/04/25 01:52:56;;;;;;;6.72;4.10;;;5.30;99.90;;;;;;5328496;26;20467;-59
2024/04/25 01:55:24;;;;;;;3.88;3.08;;;5.30;99.90;;;;;;5325649;26;20002;-59
2024/04/25 01:57:51;;;;;;;5.85;3.85;;;5.30;99.90;;;;;;5356169;26;20008;-60
2024/04/25 02:00:17;;;;;;;5.90;4.10;;;5.30;99.90;;;;;;5324472;26;20008;-59
2024/04/25 02:02:43;;;;;;;4.70;3.17;;;5.30;99.90;;;;;;5322541;26;20067;-60
2024/04/25 02:05:09;;;;;;;6.75;3.90;;;5.20;99.90;;;;;;5329825;26;20417;-60
2024/04/25 02:07:35;;;;;;;6.78;4.47;;;5.20;99.90;;;;;;5329779;26;19996;-59
2024/04/25 02:10:02;;;;;;;6.15;4.00;;;5.20;99.90;;;;;;5326044;26;20012;-60
2024/04/25 02:12:28;;;;;;;7.03;4.28;;;5.20;99.90;;;;;;5327311;26;20006;-59
2024/04/25 02:14:54;;;;;;;8.95;4.15;;;5.10;99.90;;;;;;5323062;26;20026;-60
2024/04/25 02:17:19;;;;;;;6.22;3.90;;;5.20;99.90;;;;;;5328478;26;20001;-60
2024/04/25 02:19:46;;;;;;;8.52;4.28;;;5.20;99.90;;;;;;5324556;26;19998;-59
2024/04/25 02:25:14;;;;;;;7.90;4.32;;;5.20;99.90;;;;;;5327732;26;20006;-60
2024/04/25 02:27:40;;;;;;;6.55;4.63;;;5.30;99.90;;;;;;5323208;26;19997;-60
2024/04/25 02:30:06;;;;;;;5.68;4.25;;;5.40;99.90;;;;;;5323980;26;20009;-59
2024/04/25 02:32:32;;;;;;;6.20;4.55;;;5.30;99.90;;;;;;5331906;26;20000;-59
2024/04/25 02:34:58;;;;;;;6.03;4.47;;;5.40;99.90;;;;;;5329863;26;20467;-60
2024/04/25 02:37:24;;;;;;;6.60;4.18;;;5.40;99.90;;;;;;5325859;26;20078;-60
2024/04/25 02:39:50;;;;;;;8.00;4.80;;;5.40;99.90;;;;;;5326411;26;20440;-59
2024/04/25 02:42:16;;;;;;;6.72;4.53;;;5.50;99.90;;;;;;5328054;26;20001;-60
2024/04/25 02:44:42;;;;;;;9.85;4.90;;;5.50;99.90;;;;;;5330870;26;20001;-60
2024/04/25 02:47:08;;;;;;;5.15;4.22;;;5.50;99.90;;;;;;5330515;26;19999;-60
2024/04/25 02:49:34;;;;;;;6.15;4.50;;;5.50;99.90;;;;;;5323536;26;20013;-60
2024/04/25 02:52:00;;;;;;;7.63;4.20;;;5.50;99.90;;;;;;5328865;26;20336;-59
2024/04/25 02:54:25;;;;;;;7.82;4.78;;;5.50;99.90;;;;;;5327691;26;21334;-60
2024/04/25 02:56:51;;;;;;;7.43;4.00;;;5.60;99.90;;;;;;5325754;26;20002;-60
2024/04/25 02:59:17;;;;;;;8.63;4.35;;;5.60;99.90;;;;;;5326284;26;20459;-59
2024/04/25 03:01:43;;;;;;;5.50;4.20;;;5.60;99.90;;;;;;5327255;26;20108;-59
2024/04/25 03:04:09;;;;;;;10.95;4.80;;;5.60;99.90;;;;;;5330276;26;20075;-59
2024/04/25 03:06:34;;;;;;;5.57;4.30;;;5.60;99.90;;;;;;5323024;26;20012;-60
2024/04/25 03:09:00;;;;;;;6.30;4.15;;;5.60;99.90;;;;;;5322228;26;20451;-59
2024/04/25 03:11:26;;;;;;;6.03;4.30;;;5.60;99.90;;;;;;5322090;26;20001;-59
2024/04/25 03:13:52;;;;;;;7.05;4.45;;;5.50;99.90;;;;;;5330467;26;20351;-59
2024/04/25 03:16:18;;;;;;;6.57;4.57;;;5.50;99.90;;;;;;5328357;26;20004;-59
2024/04/25 03:18:44;;;;;;;4.45;3.33;;;5.50;99.90;;;;;;5329252;26;20002;-59
2024/04/25 03:21:10;;;;;;;5.78;3.90;;;5.50;99.90;;;;;;5330064;26;20332;-59
2024/04/25 03:23:41;;;;;;;6.07;3.58;;;5.50;99.90;;;;;;5327649;26;19998;-60
2024/04/25 03:26:08;;;;;;;5.88;4.13;;;5.50;99.90;;;;;;5330290;26;20001;-59
2024/04/25 03:28:34;;;;;;;7.47;3.97;;;5.60;99.90;;;;;;5327119;26;20447;-60
2024/04/25 03:31:01;;;;;;;5.57;3.78;;;5.60;99.90;;;;;;5332395;26;20043;-59
2024/04/25 03:33:27;;;;;;;5.30;3.70;;;5.60;99.90;;;;;;5326230;26;20031;-60
2024/04/25 03:35:53;;;;;;;7.00;3.85;;;5.50;99.90;;;;;;5325480;26;19996;-60
2024/04/25 03:38:19;;;;;;;6.53;3.45;;;5.50;99.90;;;;;;5327154;26;20001;-59
2024/04/25 03:40:45;;;;;;;5.13;3.53;;;5.50;99.90;;;;;;5326632;26;20015;-60
2024/04/25 03:43:11;;;;;;;5.47;3.33;;;5.50;99.90;;;;;;5331742;26;20451;-59
2024/04/25 03:45:37;;;;;;;7.15;4.15;;;5.50;99.90;;;;;;5329484;26;20071;-60
2024/04/25 03:48:03;;;;;;;5.30;3.65;;;5.60;99.90;;;;;;5327747;26;20013;-60
2024/04/25 03:50:29;;;;;;;7.68;3.92;;;5.60;99.90;;;;;;5332090;26;20051;-60
2024/04/25 03:52:55;;;;;;;7.22;3.92;;;5.60;99.90;;;;;;5323464;26;20012;-60
2024/04/25 03:55:21;;;;;;;6.82;4.00;;;5.70;99.90;;;;;;5331952;26;20000;-60
2024/04/25 03:57:47;;;;;;;5.80;3.50;;;5.70;99.90;;;;;;5330950;26;20047;-59
2024/04/25 04:00:13;;;;;;;4.90;3.25;;;5.70;99.90;;;;;;5331122;26;20162;-59
2024/04/25 04:02:39;;;;;;;5.80;3.00;;;5.70;99.90;;;;;;5325230;26;20042;-60
2024/04/25 04:05:05;;;;;;;7.68;3.88;;;5.70;99.90;;;;;;5331935;26;20001;-59
2024/04/25 04:07:31;;;;;;;4.95;3.50;;;5.70;99.90;;;;;;5329219;26;20001;-59
2024/04/25 04:09:57;;;;;;;5.68;3.78;;;5.80;99.90;;;;;;5326847;26;20440;-59
2024/04/25 04:12:23;;;;;;;6.03;3.60;;;5.80;99.90;;;;;;5337938;26;20000;-59
2024/04/25 04:14:49;;;;;;;7.25;4.20;;;5.90;99.90;;;;;;5325350;26;20001;-60
2024/04/25 04:17:14;;;;;;;5.05;3.80;;;5.90;99.90;;;;;;5325651;26;20005;-60
2024/04/25 04:19:40;;;;;;;5.80;3.72;;;5.90;99.90;;;;;;5332163;26;20008;-60
2024/04/25 04:22:06;;;;;;;6.43;3.88;;;5.90;99.90;;;;;;5322975;26;20016;-59
2024/04/25 04:24:32;;;;;;;4.60;3.55;;;5.90;99.90;;;;;;5328034;26;20008;-60
2024/04/25 04:26:58;;;;;;;5.78;3.67;;;6.00;99.90;;;;;;5332888;26;20001;-60
2024/04/25 04:29:24;;;;;;;5.68;3.80;;;6.10;99.90;;;;;;5327130;26;20456;-60
2024/04/25 04:31:50;;;;;;;5.45;3.58;;;6.00;99.90;;;;;;5330810;26;19997;-60
2024/04/25 04:34:16;;;;;;;5.70;3.65;;;6.00;99.90;;;;;;5325515;26;20009;-60
2024/04/25 04:36:41;;;;;;;5.32;3.47;;;6.00;99.90;;;;;;5332377;26;20360;-60
2024/04/25 04:39:10;;;;;;;5.15;3.55;;;6.10;99.90;;;;;;5328086;26;20012;-59
2024/04/25 04:41:37;;;;;;;7.28;3.70;;;6.10;99.90;;;;;;5330167;26;20070;-60
2024/04/25 04:44:03;;;;;;;5.30;3.40;;;6.10;99.90;;;;;;5330847;26;20016;-59
2024/04/25 04:46:29;;;;;;;5.35;3.60;;;6.10;99.90;;;;;;5332222;26;19997;-60
2024/04/25 04:48:55;;;;;;;7.30;4.78;;;6.10;99.90;;;;;;5327682;26;20075;-60
2024/04/25 04:51:21;;;;;;;5.63;3.72;;;6.20;99.90;;;;;;5324007;26;20001;-59
2024/04/25 04:53:47;;;;;;;5.03;3.58;;;6.20;99.90;;;;;;5329258;26;20041;-60
2024/04/25 04:56:14;;;;;;;7.43;3.80;;;6.20;99.90;;;;;;5329034;26;20447;-59
2024/04/25 04:58:40;;;;;;;6.10;3.90;;;6.30;99.90;;;;;;5324698;26;20008;-60
2024/04/25 05:01:06;;;;;;;5.80;3.70;;;6.30;99.90;;;;;;5331767;26;19998;-59
2024/04/25 05:03:32;;;;;;;5.50;3.88;;;6.40;99.90;;;;;;5329867;26;20000;-59
2024/04/25 05:05:58;;;;;;;5.28;3.72;;;6.40;99.90;;;;;;5330811;26;20463;-59
2024/04/25 05:08:24;;;;;;;6.22;3.95;;;6.40;99.90;;;;;;5327566;26;20534;-60
2024/04/25 05:10:50;;;;;;;6.18;3.90;;;6.50;99.90;;;;;;5324942;26;19993;-59
2024/04/25 05:13:15;;;;;;;6.50;3.78;;;6.60;99.90;;;;;;5326951;26;20080;-59
2024/04/25 05:15:41;;;;;;;6.90;4.50;;;6.60;99.90;;;;;;5330697;26;20002;-59
2024/04/25 05:18:07;;;;;;;6.28;3.92;;;6.60;99.90;;;;;;5330774;26;20001;-60
2024/04/25 05:20:33;;;;;;;5.57;4.13;;;6.60;99.90;;;;;;5323722;26;20009;-59
2024/04/25 05:22:59;;;;;;;5.30;3.67;;;6.70;99.90;;;;;;5330735;26;20458;-59
2024/04/25 05:25:25;;;;;;;6.53;3.90;;;6.80;99.90;;;;;;5330800;26;20351;-59
2024/04/25 05:27:52;;;;;;;6.53;4.00;;;6.90;99.90;;;;;;5330619;26;20013;-60
2024/04/25 05:30:22;;;;;;;6.63;3.80;;;7.00;99.90;;;;;;5327705;26;20012;-59
2024/04/25 05:32:49;;;;;;;4.57;3.83;;;7.10;99.90;;;;;;5331807;26;19997;-60
2024/04/25 05:35:16;;;;;;;8.68;4.20;;;7.20;99.90;;;;;;5331702;26;20005;-59
2024/04/25 05:37:42;;;;;;;6.53;4.55;;;7.30;99.90;;;;;;5325528;26;20006;-60
2024/04/25 05:40:08;;;;;;;6.22;3.95;;;7.40;99.90;;;;;;5329441;26;20009;-60
2024/04/25 05:42:34;;;;;;;5.90;4.00;;;7.40;99.90;;;;;;5324420;26;20435;-60
2024/04/25 05:45:00;;;;;;;6.15;3.97;;;7.40;99.90;;;;;;5324450;26;20015;-60
2024/04/25 05:47:26;;;;;;;6.43;3.75;;;7.40;99.90;;;;;;5324563;26;20545;-59
2024/04/25 05:49:52;;;;;;;8.20;4.60;;;7.50;99.90;;;;;;5324441;26;19997;-60
2024/04/25 05:52:19;;;;;;;7.25;4.45;;;7.50;99.90;;;;;;5331370;26;20466;-59
2024/04/25 05:54:51;;;;;;;7.90;4.28;;;7.50;99.90;;;;;;5332027;26;20020;-59
2024/04/25 05:57:17;;;;;;;5.90;3.83;;;7.60;99.90;;;;;;5326259;26;20042;-59
2024/04/25 05:59:44;;;;;;;7.47;4.35;;;7.50;99.90;;;;;;5331375;26;19993;-60
2024/04/25 06:02:10;;;;;;;7.47;4.70;;;7.50;99.90;;;;;;5326477;26;19998;-59
2024/04/25 06:04:35;;;;;;;10.57;4.85;;;7.50;99.90;;;;;;5330298;26;20011;-59
2024/04/25 06:07:01;;;;;;;6.53;4.57;;;7.50;99.90;;;;;;5329092;26;20009;-59
2024/04/25 06:09:27;;;;;;;8.00;4.38;;;7.40;99.90;;;;;;5323939;26;20001;-59
2024/04/25 06:11:53;;;;;;;8.60;4.95;;;7.40;99.90;;;;;;5322527;26;20008;-60
2024/04/25 06:14:22;;;;;;;5.57;3.92;;;7.40;99.90;;;;;;5330052;26;19997;-59
2024/04/25 06:16:48;;;;;;;5.80;4.00;;;7.40;99.90;;;;;;5325012;26;20006;-59
2024/04/25 06:19:15;;;;;;;6.07;4.13;;;7.40;99.90;;;;;;5328504;26;20007;-59
2024/04/25 06:21:40;;;;;;;8.93;4.10;;;7.40;99.90;;;;;;5348066;26;20454;-60
2024/04/25 06:24:07;;;;;;;8.15;4.15;;;7.50;99.90;;;;;;5333605;26;20005;-59
2024/04/25 06:26:33;;;;;;;9.18;4.30;;;7.50;99.90;;;;;;5320757;26;20045;-59
2024/04/25 06:28:59;;;;;;;5.70;4.50;;;7.60;99.90;;;;;;5328948;26;20054;-59
2024/04/25 06:31:25;;;;;;;8.07;4.28;;;7.70;99.90;;;;;;5323660;26;20435;-60
2024/04/25 06:33:59;;;;;;;4.85;3.63;;;7.70;99.90;;;;;;5323710;26;20083;-59
2024/04/25 06:36:26;;;;;;;4.93;3.60;;;7.90;99.90;;;;;;5324123;26;20002;-60
2024/04/25 06:38:52;;;;;;;8.60;4.43;;;7.90;99.90;;;;;;5323731;26;20016;-59
2024/04/25 06:41:20;;;;;;;9.60;4.15;;;7.90;99.90;;;;;;5327615;26;20001;-60
2024/04/25 06:43:51;;;;;;;6.43;3.92;;;7.90;99.90;;;;;;5323596;26;19998;-59
2024/04/25 06:46:16;;;;;;;8.77;3.72;;;8.00;99.90;;;;;;5322648;26;20016;-59
2024/04/25 06:48:42;;;;;;;6.97;3.78;;;8.00;99.90;;;;;;5330785;26;20004;-58
2024/04/25 06:51:08;;;;;;;5.40;3.55;;;8.00;99.90;;;;;;5328070;26;19997;-60
2024/04/25 06:53:35;;;;;;;5.40;3.35;;;8.00;99.90;;;;;;5330142;26;20460;-59
2024/04/25 06:56:01;;;;;;;4.47;2.80;;;8.00;99.90;;;;;;5329907;26;20085;-60
2024/04/25 06:58:27;;;;;;;4.35;3.22;;;7.90;99.90;;;;;;5333368;26;20008;-60
2024/04/25 07:00:53;;;;;;;4.22;2.90;;;7.90;99.90;;;;;;5327603;26;19997;-59
2024/04/25 07:03:19;;;;;;;3.53;2.53;;;8.00;99.90;;;;;;5332035;26;19997;-60
2024/04/25 07:05:45;;;;;;;4.13;2.45;;;8.00;99.90;;;;;;5332946;26;20343;-59
2024/04/25 07:08:10;;;;;;;5.82;3.25;;;8.00;99.90;;;;;;5325216;26;20005;-60
2024/04/25 07:10:37;;;;;;;6.05;3.80;;;8.00;99.90;;;;;;5334616;26;20015;-60
2024/04/25 07:13:04;;;;;;;4.15;3.00;;;8.00;99.90;;;;;;5328347;26;20013;-59
2024/04/25 07:15:30;;;;;;;5.47;3.67;;;8.10;99.90;;;;;;5329854;26;20009;-60
2024/04/25 07:17:56;;;;;;;4.85;3.13;;;8.00;99.90;;;;;;5329822;26;20567;-59
2024/04/25 07:20:22;;;;;;;4.65;3.33;;;8.00;99.90;;;;;;5328310;26;19998;-60
2024/04/25 07:22:48;;;;;;;4.32;3.33;;;8.10;99.90;;;;;;5331097;26;19997;-60
2024/04/25 07:25:14;;;;;;;5.80;3.75;;;8.10;99.90;;;;;;5326470;26;20080;-59
2024/04/25 07:27:40;;;;;;;5.15;3.40;;;8.00;99.90;;;;;;5332917;26;20011;-60
2024/04/25 07:30:09;;;;;;;4.05;3.20;;;8.00;99.90;;;;;;5332038;26;20079;-60
2024/04/25 07:32:36;;;;;;;5.07;3.78;;;8.00;99.90;;;;;;5353729;26;19997;-59
2024/04/25 07:35:02;;;;;;;4.63;3.42;;;8.00;99.90;;;;;;5335239;26;19997;-60
2024/04/25 07:37:35;;;;;;;4.85;3.22;;;8.00;99.90;;;;;;5323877;26;20001;-63
2024/04/25 07:40:01;;;;;;;6.43;4.00;;;8.00;99.90;;;;;;5341505;26;20020;-61
2024/04/25 07:42:28;;;;;;;6.50;3.78;;;8.00;99.90;;;;;;5325274;26;20016;-60
2024/04/25 07:44:56;;;;;;;6.57;4.07;;;8.00;99.90;;;;;;5332012;26;20020;-60
2024/04/25 07:47:22;;;;;;;4.78;3.33;;;8.00;99.90;;;;;;5324672;26;20009;-59
2024/04/25 07:49:48;;;;;;;4.30;3.40;;;8.10;99.90;;;;;;5329295;26;20012;-60
2024/04/25 07:52:14;;;;;;;5.97;3.65;;;8.00;99.90;;;;;;5326677;26;20010;-60
2024/04/25 07:54:40;;;;;;;5.13;3.33;;;8.00;99.90;;;;;;5351687;26;20016;-60
2024/04/25 07:57:06;;;;;;;5.38;3.78;;;8.10;99.90;;;;;;5325644;26;20021;-60
2024/04/25 07:59:32;;;;;;;6.13;4.00;;;8.20;99.90;;;;;;5324507;26;20001;-59
2024/04/25 08:01:58;;;;;;;5.00;3.83;;;8.20;99.90;;;;;;5310455;26;20016;-60
2024/04/25 08:04:24;;;;;;;6.60;3.63;;;8.30;99.90;;;;;;5334752;26;20520;-60
2024/04/25 08:06:50;;;;;;;6.95;4.20;;;8.40;99.90;;;;;;5329153;26;19997;-60
2024/04/25 08:09:16;;;;;;;4.03;2.75;;;8.40;99.90;;;;;;5331173;26;19997;-60
2024/04/25 08:11:42;;;;;;;5.03;3.33;;;8.40;99.90;;;;;;5325658;26;20488;-60
2024/04/25 08:14:08;;;;;;;6.20;2.78;;;8.40;99.90;;;;;;5326589;26;20084;-60
2024/04/25 08:16:34;;;;;;;4.93;2.95;;;8.50;99.90;;;;;;5331015;26;20343;-60
2024/04/25 08:19:00;;;;;;;4.25;3.08;;;8.60;99.90;;;;;;5332040;26;20001;-60
2024/04/25 08:21:26;;;;;;;3.47;2.72;;;8.70;99.90;;;;;;5324327;26;20008;-60
2024/04/25 08:23:51;;;;;;;4.32;3.00;;;8.80;99.90;;;;;;5325589;26;20462;-60
2024/04/25 08:26:17;;;;;;;2.72;2.33;;;8.80;99.90;;;;;;5335773;26;20000;-60
2024/04/25 08:28:43;;;;;;;3.85;2.75;;;8.90;99.90;;;;;;5334707;26;20016;-60
2024/04/25 08:31:09;;;;;;;4.05;2.95;;;9.00;99.90;;;;;;5326765;26;20460;-58
2024/04/25 08:33:35;;;;;;;4.75;2.47;;;9.10;99.90;;;;;;5330877;26;20341;-59
2024/04/25 08:36:01;;;;;;;2.42;2.20;;;9.20;99.90;;;;;;5331392;26;20016;-60
2024/04/25 08:38:29;;;;;;;2.50;2.20;;;9.30;99.90;;;;;;5325028;26;20002;-59
2024/04/25 08:40:58;;;;;;;3.33;2.40;;;9.30;99.90;;;;;;5329907;26;20354;-59
2024/04/25 08:43:24;;;;;;;3.70;2.90;;;9.40;99.90;;;;;;5318017;26;20020;-60
2024/04/25 08:45:51;;;;;;;3.92;2.75;;;9.60;99.90;;;;;;5330104;26;20000;-60
2024/04/25 08:48:18;;;;;;;4.55;2.88;;;9.70;99.90;;;;;;5358954;26;20020;-59
2024/04/25 08:50:46;;;;;;;4.75;2.97;;;9.80;99.90;;;;;;5327015;26;20016;-60
2024/04/25 08:53:15;;;;;;;4.82;3.45;;;10.00;99.90;;;;;;5328171;26;19997;-60
2024/04/25 08:55:42;;;;;;;4.15;3.13;;;10.30;99.90;;;;;;5327392;26;20015;-59
2024/04/25 08:58:08;;;;;;;3.30;2.83;;;10.60;99.90;;;;;;5328094;26;20017;-59
2024/04/25 09:00:34;;;;;;;4.18;3.30;;;10.70;99.90;;;;;;5328501;26;20009;-60
2024/04/25 09:03:06;;;;;;;4.80;2.97;;;10.70;99.90;;;;;;5325926;26;20583;-60
2024/04/25 09:05:33;;;;;;;4.70;3.67;;;10.80;99.90;;;;;;5328600;26;20017;-60
2024/04/25 09:07:59;;;;;;;6.35;3.83;;;10.80;99.90;;;;;;5331704;26;20012;-60
2024/04/25 09:10:25;;;;;;;7.53;4.60;;;10.90;99.90;;;;;;5324589;26;20004;-59
2024/04/25 09:12:51;;;;;;;6.75;4.38;;;11.00;99.90;;;;;;5324267;26;20017;-60
2024/04/25 09:15:17;;;;;;;7.80;4.80;;;11.10;99.90;;;;;;5323015;26;20081;-60
2024/04/25 09:17:43;;;;;;;10.10;5.90;;;11.30;99.90;;;;;;5325639;26;20410;-59
2024/04/25 09:20:09;;;;;;;8.20;5.05;;;11.60;99.90;;;;;;5331857;26;20012;-60
2024/04/25 09:22:38;;;;;;;6.60;4.90;;;11.80;99.90;;;;;;5330352;26;20008;-59
2024/04/25 09:25:06;;;;;;;6.72;4.03;;;12.10;99.90;;;;;;5327774;26;20006;-60
2024/04/25 09:27:32;;;;;;;6.07;4.32;;;12.20;99.90;;;;;;5330194;26;20138;-60
2024/04/25 09:29:58;;;;;;;7.50;4.55;;;12.50;99.30;;;;;;5328334;26;20005;-60
2024/04/25 09:32:24;;;;;;;7.90;4.32;;;12.60;98.30;;;;;;5328614;26;20475;-60
2024/04/25 09:34:49;;;;;;;6.90;4.40;;;12.70;98.70;;;;;;5329781;26;20074;-59
2024/04/25 09:37:17;;;;;;;6.38;4.40;;;12.70;97.70;;;;;;5323368;26;20351;-59
2024/04/25 09:39:42;;;;;;;6.30;4.85;;;12.60;96.90;;;;;;5317326;26;20013;-59
2024/04/25 09:42:11;;;;;;;5.03;3.83;;;12.40;97.20;;;;;;5329547;26;20075;-60
2024/04/25 09:44:38;;;;;;;8.60;5.13;;;12.30;97.30;;;;;;5324258;26;20483;-60
2024/04/25 09:47:11;;;;;;;22.80;10.93;;;12.30;97.50;;;;;;5328495;26;20006;-60
2024/04/25 09:49:51;;;;;;;11.02;6.57;;;12.50;98.70;;;;;;5325121;26;20013;-59
2024/04/25 09:52:27;;;;;;;8.40;5.10;;;12.70;98.70;;;;;;5324059;26;20002;-60
2024/04/25 09:55:02;;;;;;;7.20;4.53;;;12.90;97.90;;;;;;5327923;26;20009;-60
2024/04/25 09:57:31;;;;;;;5.75;3.88;;;12.90;96.00;;;;;;5327326;26;20538;-60
2024/04/25 10:00:08;;;;;;;3.67;2.33;;;12.70;96.30;;;;;;5326272;26;20016;-59
2024/04/25 10:02:36;;;;;;;4.47;2.60;;;12.10;95.70;;;;;;5328727;26;20000;-59
2024/04/25 10:05:02;;;;;;;4.00;3.03;;;11.30;97.30;;;;;;5324952;26;20156;-59
2024/04/25 10:07:29;;;;;;;4.30;3.15;;;10.60;98.40;;;;;;5327385;26;19997;-60
2024/04/25 10:09:56;;;;;;;4.10;2.72;;;10.20;99.60;;;;;;5326763;26;19997;-59
2024/04/25 10:12:26;;;;;;;3.20;2.35;;;10.00;99.70;;;;;;5324134;26;20001;-59
2024/04/25 10:15:00;;;;;;;5.90;3.15;;;9.80;99.40;;;;;;5324791;26;20161;-59
2024/04/25 10:17:35;;;;;;;14.20;7.18;;;9.70;99.90;;;;;;5328089;26;20440;-60
2024/04/25 10:20:03;;;;;;;4.35;2.70;;;9.60;99.90;;;;;;5321037;26;20463;-59
2024/04/25 10:22:30;;;;;;;4.13;2.50;;;9.50;99.90;;;;;;5330525;26;20039;-59
2024/04/25 10:25:06;;;;;;;4.97;2.90;;;9.30;99.90;;;;;;5333495;26;20001;-60
2024/04/25 10:27:34;;;;;;;;;;;9.10;99.90;;;;;;5333333;26;20008;-59
2024/04/25 10:30:02;;;;;;;7.93;3.70;;;9.00;99.90;;;;;;5327711;26;19927;-59
2024/04/25 10:32:28;;;;;;;8.95;4.70;;;9.10;99.90;;;;;;5331923;26;20439;-59
2024/04/25 10:34:56;;;;;;;6.80;4.32;;;9.10;99.90;;;;;;5328580;26;19997;-59
2024/04/25 10:37:22;;;;;;;8.88;4.65;;;9.30;99.90;;;;;;5329886;26;20017;-59
2024/04/25 10:39:48;;;;;;;6.18;4.07;;;9.60;99.90;;;;;;5330016;26;20008;-59
2024/04/25 10:42:21;;;;;;;5.20;3.72;;;9.90;99.90;;;;;;5327046;26;20000;-59
2024/04/25 10:44:51;;;;;;;7.93;5.15;;;10.30;99.90;;;;;;5329149;26;20084;-59
2024/04/25 10:47:18;;;;;;;4.50;3.53;;;10.40;99.90;;;;;;5329952;26;20002;-59
2024/04/25 10:49:44;;;;;;;5.15;3.90;;;10.60;99.90;;;;;;5325752;26;20005;-59
2024/04/25 10:52:10;;;;;;;7.45;4.47;;;10.80;99.90;;;;;;5330343;26;20451;-59
2024/04/25 10:54:37;;;;;;;5.85;3.65;;;11.10;99.90;;;;;;5327370;26;20013;-59
2024/04/25 10:57:03;;;;;;;3.90;3.22;;;11.50;99.90;;;;;;5331406;26;20001;-59
2024/04/25 10:59:30;;;;;;;5.13;3.60;;;11.90;99.90;;;;;;5326079;26;20337;-60
2024/04/25 11:02:03;;;;;;;5.03;3.63;;;12.20;99.90;;;;;;5333373;26;19997;-60
2024/04/25 11:04:35;;;;;;;4.95;3.30;;;12.40;99.90;;;;;;5332705;26;20016;-60
2024/04/25 11:07:03;;;;;;;4.00;2.97;;;12.30;99.90;;;;;;5358586;26;20044;-60
2024/04/25 11:09:30;;;;;;;3.33;2.47;;;12.10;99.90;;;;;;5332082;26;19997;-60
2024/04/25 11:11:57;;;;;;;5.30;3.78;;;11.80;99.40;;;;;;5346655;26;19997;-59
2024/04/25 11:14:23;;;;;;;6.40;4.28;;;11.70;99.90;;;;;;5324977;26;20049;-60
2024/04/25 11:16:49;;;;;;;4.43;3.08;;;11.80;99.90;;;;;;5329503;26;20017;-60
2024/04/25 11:19:16;;;;;;;3.53;2.40;;;11.90;99.90;;;;;;5349639;26;20002;-59
2024/04/25 11:21:47;;;;;;;4.82;2.40;;;12.10;99.40;;;;;;5320362;26;20040;-60
2024/04/25 11:24:16;;;;;;;8.73;2.92;;;12.20;99.60;;;;;;5324710;26;20002;-59
2024/04/25 11:26:43;;;;;;;2.90;2.30;;;12.30;99.50;;;;;;5334977;26;20001;-60
2024/04/25 11:29:09;;;;;;;2.17;1.98;;;12.50;99.30;;;;;;5351183;26;19996;-59
2024/04/25 11:31:36;;;;;;;2.38;1.98;;;12.60;98.20;;;;;;5323047;26;20052;-60
2024/04/25 11:34:16;;;;;;;3.45;1.88;;;12.70;97.70;;;;;;5362701;26;20005;-59
2024/04/25 11:36:42;;;;;;;4.00;2.47;;;12.70;97.50;;;;;;5325859;26;20037;-59
2024/04/25 11:39:19;;;;;;;8.02;4.50;;;12.70;97.70;;;;;;5328900;26;20348;-59
2024/04/25 11:41:46;;;;;;;3.70;3.05;;;12.50;97.00;;;;;;5325752;26;20459;-60
2024/04/25 11:44:12;;;;;;;3.97;2.70;;;12.40;96.70;;;;;;5334780;26;20001;-60
2024/04/25 11:46:38;;;;;;;2.40;1.92;;;12.30;97.80;;;;;;5325181;26;19997;-59
2024/04/25 11:49:04;;;;;;;1.77;1.58;;;12.10;96.30;;;;;;5331293;26;20001;-61
2024/04/25 11:51:31;;;;;;;1.55;1.40;;;11.90;96.70;;;;;;5334155;26;20423;-60
2024/04/25 11:53:57;;;;;;;2.38;1.67;;;11.80;97.70;;;;;;5343022;26;20016;-59
2024/04/25 11:56:25;;;;;;;2.67;2.15;;;11.70;98.20;;;;;;5344027;26;20001;-60
2024/04/25 11:58:52;;;;;;;2.50;2.20;;;11.50;97.80;;;;;;5343107;26;20070;-58
2024/04/25 12:01:18;;;;;;;2.55;2.10;;;11.50;98.40;;;;;;5337857;26;20001;-60
2024/04/25 12:03:43;;;;;;;2.22;1.83;;;11.50;99.00;;;;;;5340365;26;20459;-59
2024/04/25 12:06:09;;;;;;;4.35;2.88;;;11.40;97.80;;;;;;5340730;26;20001;-59
2024/04/25 12:08:37;;;;;;;2.88;2.33;;;11.40;98.30;;;;;;5345939;26;19997;-59
2024/04/25 12:11:04;;;;;;;2.47;2.00;;;11.40;98.00;;;;;;5345529;26;20053;-59
2024/04/25 12:13:30;;;;;;;2.45;1.90;;;11.20;97.60;;;;;;5341994;26;19997;-60
2024/04/25 12:15:56;;;;;;;3.20;2.30;;;11.00;98.00;;;;;;5342840;26;20012;-60
2024/04/25 12:18:23;;;;;;;5.07;2.58;;;11.00;99.00;;;;;;5340704;26;20019;-60
2024/04/25 12:20:50;;;;;;;2.97;2.17;;;10.80;99.90;;;;;;5340008;26;20005;-59
2024/04/25 12:23:16;;;;;;;3.30;2.30;;;10.50;99.90;;;;;;5341479;26;20422;-60
2024/04/25 12:25:42;;;;;;;2.50;1.90;;;10.20;99.90;;;;;;5340859;26;20055;-60
2024/04/25 12:28:08;;;;;;;1.85;1.42;;;9.90;99.90;;;;;;5343475;26;20008;-59
2024/04/25 12:30:37;;;;;;;3.83;2.20;;;9.80;99.90;;;;;;5344818;26;20359;-59
2024/04/25 12:33:03;;;;;;;2.10;1.77;;;9.70;99.90;;;;;;5343063;26;20001;-59
2024/04/25 12:35:29;;;;;;;1.45;1.30;;;9.80;99.90;;;;;;5342387;26;19997;-60
2024/04/25 12:37:54;;;;;;;2.35;1.60;;;9.90;99.90;;;;;;5345006;26;20001;-59
2024/04/25 12:40:21;;;;;;;1.45;1.35;;;10.20;99.90;;;;;;5329235;26;20001;-60
2024/04/25 12:42:47;;;;;;;3.05;1.10;;;10.50;99.90;;;;;;5326618;26;20033;-59
2024/04/25 12:45:19;;;;;;;1.85;1.30;;;10.80;99.90;;;;;;5330249;26;19997;-58
2024/04/25 12:47:45;;;;;;;2.10;1.35;;;11.10;99.90;;;;;;5325483;26;19997;-59
2024/04/25 12:50:11;;;;;;;1.90;1.30;;;11.30;99.90;;;;;;5331572;26;20012;-59
2024/04/25 12:52:37;;;;;;;2.42;1.75;;;11.50;99.90;;;;;;5325106;26;20001;-59
2024/04/25 12:55:03;;;;;;;1.85;1.48;;;11.60;99.90;;;;;;5330228;26;20336;-60